AFL1318 UUEE-ULMM
Flight info
| Callsign | AFL1318 |
|---|---|
| Flight time | N/A |
| Altitude | 32000 |
| Route | RILPO3J RILPO DCT GIMDA/K0835F330 N156 UPEMA T825 ADLIN/K0833F340 T747 MOVIT DCT PILAN T693 ASGOR ASGOR2L |
| Aircraft | A321/M-SDE3FGHIRWY/LB1 |
Departure
| Time | 2026-05-01 15:02 |
|---|---|
| Airport | Sheremetyevo International Airport (UUEE) |
Arrival
| Time | N/A |
|---|---|
| Airport | Emperor Nicholas II Murmansk Airport (ULMM) |
| Time | Latitude | Longitude | Altitude | Speed | Heading |
|---|---|---|---|---|---|
| 2026-05-01 13:59 | 55.97961 | 37.41621 | 639 ft | 0 kts | 76° |
| 2026-05-01 14:46 | 55.97957 | 37.41591 | 639 ft | 4 kts | 76° |
| 2026-05-01 14:47 | 55.97952 | 37.41551 | 639 ft | 2 kts | 76° |
| 2026-05-01 14:47 | 55.97948 | 37.41508 | 639 ft | 4 kts | 95° |
| 2026-05-01 14:47 | 55.97955 | 37.41464 | 640 ft | 4 kts | 129° |
| 2026-05-01 14:48 | 55.97975 | 37.41438 | 645 ft | 0 kts | 165° |
| 2026-05-01 14:55 | 55.97939 | 37.41457 | 639 ft | 13 kts | 164° |
| 2026-05-01 14:55 | 55.97826 | 37.41513 | 641 ft | 18 kts | 165° |
| 2026-05-01 14:55 | 55.97713 | 37.41566 | 644 ft | 16 kts | 166° |
| 2026-05-01 14:55 | 55.97618 | 37.41638 | 644 ft | 14 kts | 124° |
| 2026-05-01 14:56 | 55.97626 | 37.41793 | 644 ft | 12 kts | 75° |
| 2026-05-01 14:56 | 55.97654 | 37.41973 | 641 ft | 17 kts | 74° |
| 2026-05-01 14:56 | 55.97684 | 37.42173 | 644 ft | 16 kts | 76° |
| 2026-05-01 14:56 | 55.97703 | 37.42304 | 639 ft | 15 kts | 75° |
| 2026-05-01 14:57 | 55.97719 | 37.42409 | 648 ft | 14 kts | 75° |
| 2026-05-01 14:57 | 55.97743 | 37.42568 | 639 ft | 13 kts | 75° |
| 2026-05-01 14:58 | 55.97765 | 37.42710 | 642 ft | 11 kts | 75° |
| 2026-05-01 14:58 | 55.97784 | 37.42834 | 639 ft | 10 kts | 75° |
| 2026-05-01 14:58 | 55.97800 | 37.42939 | 639 ft | 8 kts | 75° |
| 2026-05-01 14:58 | 55.97815 | 37.43042 | 641 ft | 11 kts | 77° |
| 2026-05-01 14:59 | 55.97839 | 37.43220 | 642 ft | 16 kts | 74° |
| 2026-05-01 14:59 | 55.97867 | 37.43397 | 645 ft | 14 kts | 74° |
| 2026-05-01 14:59 | 55.97892 | 37.43555 | 648 ft | 12 kts | 74° |
| 2026-05-01 14:59 | 55.97912 | 37.43687 | 641 ft | 13 kts | 76° |
| 2026-05-01 15:00 | 55.97947 | 37.43982 | 640 ft | 8 kts | 102° |
| 2026-05-01 15:00 | 55.97913 | 37.44040 | 639 ft | 7 kts | 155° |
| 2026-05-01 15:00 | 55.97824 | 37.44069 | 640 ft | 17 kts | 187° |
| 2026-05-01 15:01 | 55.97764 | 37.43916 | 641 ft | 16 kts | 255° |
| 2026-05-01 15:01 | 55.97706 | 37.43529 | 640 ft | 64 kts | 255° |
| 2026-05-01 15:01 | 55.97533 | 37.42362 | 639 ft | 127 kts | 255° |
| 2026-05-01 15:01 | 55.97257 | 37.40536 | 670 ft | 172 kts | 256° |
| 2026-05-01 15:02 | 55.96933 | 37.38380 | 1105 ft | 186 kts | 256° |
| 2026-05-01 15:02 | 55.96804 | 37.37638 | 1324 ft | 185 kts | 250° |
| 2026-05-01 15:02 | 55.95681 | 37.34339 | 1924 ft | 198 kts | 234° |
| 2026-05-01 15:02 | 55.94822 | 37.32261 | 2056 ft | 217 kts | 233° |
| 2026-05-01 15:03 | 55.93918 | 37.30075 | 2462 ft | 223 kts | 234° |
| 2026-05-01 15:03 | 55.93005 | 37.27833 | 3035 ft | 224 kts | 236° |
| 2026-05-01 15:03 | 55.92094 | 37.25562 | 3561 ft | 226 kts | 236° |
| 2026-05-01 15:03 | 55.91185 | 37.23267 | 4075 ft | 228 kts | 236° |
| 2026-05-01 15:04 | 55.90208 | 37.21033 | 4599 ft | 231 kts | 222° |
| 2026-05-01 15:04 | 55.88755 | 37.19862 | 5076 ft | 236 kts | 186° |
| 2026-05-01 15:04 | 55.87127 | 37.20461 | 5351 ft | 250 kts | 149° |
| 2026-05-01 15:04 | 55.85701 | 37.22317 | 5764 ft | 256 kts | 142° |
| 2026-05-01 15:05 | 55.84394 | 37.24473 | 6235 ft | 261 kts | 123° |
| 2026-05-01 15:05 | 55.83822 | 37.27478 | 6734 ft | 264 kts | 90° |
| 2026-05-01 15:05 | 55.84243 | 37.30665 | 7136 ft | 271 kts | 56° |
| 2026-05-01 15:05 | 55.85398 | 37.33345 | 7677 ft | 275 kts | 49° |
| 2026-05-01 15:06 | 55.86623 | 37.35976 | 8289 ft | 277 kts | 49° |
| 2026-05-01 15:06 | 55.87862 | 37.38635 | 8826 ft | 281 kts | 49° |
| 2026-05-01 15:06 | 55.89112 | 37.41326 | 8982 ft | 282 kts | 49° |
| 2026-05-01 15:06 | 55.90355 | 37.44017 | 9011 ft | 281 kts | 49° |
| 2026-05-01 15:07 | 55.91595 | 37.46716 | 9006 ft | 281 kts | 49° |
| 2026-05-01 15:07 | 55.92814 | 37.49377 | 9017 ft | 281 kts | 49° |
| 2026-05-01 15:07 | 55.94060 | 37.52064 | 9013 ft | 281 kts | 45° |
| 2026-05-01 15:07 | 55.95476 | 37.54479 | 9301 ft | 283 kts | 41° |
| 2026-05-01 15:08 | 55.96919 | 37.56874 | 9853 ft | 284 kts | 41° |
| 2026-05-01 15:08 | 55.98355 | 37.59276 | 9984 ft | 282 kts | 41° |
| 2026-05-01 15:08 | 55.99780 | 37.61671 | 10011 ft | 281 kts | 41° |
| 2026-05-01 15:08 | 56.01197 | 37.64063 | 10008 ft | 280 kts | 41° |
| 2026-05-01 15:09 | 56.02609 | 37.66459 | 10015 ft | 280 kts | 41° |
| 2026-05-01 15:09 | 56.04005 | 37.68828 | 10008 ft | 280 kts | 41° |
| 2026-05-01 15:09 | 56.05418 | 37.71222 | 10015 ft | 280 kts | 41° |
| 2026-05-01 15:09 | 56.06832 | 37.73615 | 10007 ft | 280 kts | 41° |
| 2026-05-01 15:10 | 56.08248 | 37.76010 | 10004 ft | 280 kts | 41° |
| 2026-05-01 15:10 | 56.11028 | 37.80903 | 10013 ft | 280 kts | 44° |
| 2026-05-01 15:10 | 56.12370 | 37.83441 | 10004 ft | 280 kts | 43° |
| 2026-05-01 15:11 | 56.13875 | 37.85625 | 10007 ft | 278 kts | 29° |
| 2026-05-01 15:11 | 56.17624 | 37.87602 | 10182 ft | 302 kts | 4° |
| 2026-05-01 15:11 | 56.19781 | 37.87920 | 10304 ft | 321 kts | 4° |
| 2026-05-01 15:12 | 56.22053 | 37.88252 | 10610 ft | 331 kts | 4° |
| 2026-05-01 15:12 | 56.26688 | 37.88941 | 11733 ft | 336 kts | 4° |
| 2026-05-01 15:12 | 56.29018 | 37.89292 | 12346 ft | 337 kts | 4° |
| 2026-05-01 15:13 | 56.35976 | 37.90200 | 14171 ft | 336 kts | 5° |
| 2026-05-01 15:14 | 56.40651 | 37.90803 | 15236 ft | 338 kts | 5° |
| 2026-05-01 15:14 | 56.42994 | 37.91120 | 15766 ft | 338 kts | 5° |
| 2026-05-01 15:14 | 56.47700 | 37.91772 | 16738 ft | 340 kts | 6° |
| 2026-05-01 15:15 | 56.52434 | 37.92415 | 17642 ft | 342 kts | 6° |
| 2026-05-01 15:15 | 56.57170 | 37.93050 | 18499 ft | 345 kts | 6° |
| 2026-05-01 15:16 | 56.61961 | 37.93707 | 19274 ft | 347 kts | 6° |
| 2026-05-01 15:16 | 56.66773 | 37.94620 | 19982 ft | 347 kts | 15° |
| 2026-05-01 15:17 | 56.71118 | 37.98350 | 20643 ft | 350 kts | 36° |
| 2026-05-01 15:18 | 56.76394 | 38.07594 | 21663 ft | 354 kts | 42° |
| 2026-05-01 15:18 | 56.78156 | 38.10738 | 21990 ft | 355 kts | 42° |
| 2026-05-01 15:19 | 56.83463 | 38.20239 | 23027 ft | 357 kts | 41° |
| 2026-05-01 15:19 | 56.87608 | 38.25094 | 23639 ft | 357 kts | 21° |
| 2026-05-01 15:19 | 56.90021 | 38.26237 | 23930 ft | 361 kts | 10° |
| 2026-05-01 15:20 | 56.95057 | 38.26094 | 24549 ft | 367 kts | 0° |
| 2026-05-01 15:20 | 56.97609 | 38.25764 | 24841 ft | 368 kts | 0° |
| 2026-05-01 15:20 | 57.00165 | 38.25438 | 25141 ft | 369 kts | 0° |
| 2026-05-01 15:21 | 57.02725 | 38.25112 | 25410 ft | 370 kts | 0° |
| 2026-05-01 15:21 | 57.05293 | 38.24786 | 25693 ft | 370 kts | 0° |
| 2026-05-01 15:21 | 57.07866 | 38.24463 | 25977 ft | 371 kts | 0° |
| 2026-05-01 15:21 | 57.10439 | 38.24141 | 26249 ft | 371 kts | 0° |
| 2026-05-01 15:22 | 57.15610 | 38.23491 | 26773 ft | 373 kts | 0° |
| 2026-05-01 15:22 | 57.18170 | 38.23171 | 27030 ft | 374 kts | 0° |
| 2026-05-01 15:22 | 57.20765 | 38.22845 | 27290 ft | 374 kts | 0° |
| 2026-05-01 15:23 | 57.23364 | 38.22514 | 27552 ft | 375 kts | 0° |
| 2026-05-01 15:23 | 57.25970 | 38.22180 | 27787 ft | 375 kts | 0° |
| 2026-05-01 15:23 | 57.28579 | 38.21844 | 28022 ft | 376 kts | 0° |
| 2026-05-01 15:23 | 57.31192 | 38.21508 | 28256 ft | 377 kts | 0° |
| 2026-05-01 15:24 | 57.33812 | 38.21168 | 28487 ft | 377 kts | 0° |
| 2026-05-01 15:24 | 57.36429 | 38.20834 | 28711 ft | 378 kts | 0° |
| 2026-05-01 15:24 | 57.39020 | 38.20509 | 28905 ft | 378 kts | 0° |
| 2026-05-01 15:24 | 57.40791 | 38.20286 | 29036 ft | 378 kts | 0° |
| 2026-05-01 15:25 | 57.44269 | 38.19841 | 29299 ft | 378 kts | 0° |
| 2026-05-01 15:25 | 57.46899 | 38.19495 | 29461 ft | 379 kts | 0° |
| 2026-05-01 15:25 | 57.49529 | 38.19154 | 29649 ft | 379 kts | 0° |
| 2026-05-01 15:25 | 57.52151 | 38.18816 | 29886 ft | 377 kts | 0° |
| 2026-05-01 15:26 | 57.54769 | 38.18478 | 30121 ft | 376 kts | 0° |
| 2026-05-01 15:26 | 57.57373 | 38.18136 | 30337 ft | 375 kts | 0° |
| 2026-05-01 15:26 | 57.59973 | 38.17798 | 30515 ft | 375 kts | 0° |
| 2026-05-01 15:26 | 57.62540 | 38.17470 | 30673 ft | 375 kts | 0° |
| 2026-05-01 15:27 | 57.65146 | 38.17134 | 30845 ft | 375 kts | 0° |
| 2026-05-01 15:27 | 57.67751 | 38.16797 | 31002 ft | 376 kts | 0° |
| 2026-05-01 15:27 | 57.70364 | 38.16452 | 31172 ft | 376 kts | 0° |
| 2026-05-01 15:28 | 57.75579 | 38.15772 | 31526 ft | 376 kts | 0° |
| 2026-05-01 15:28 | 57.78189 | 38.15437 | 31691 ft | 376 kts | 0° |
| 2026-05-01 15:28 | 57.80796 | 38.15103 | 31844 ft | 376 kts | 0° |
| 2026-05-01 15:29 | 57.85141 | 38.14537 | 32091 ft | 377 kts | 0° |
| 2026-05-01 15:29 | 57.88609 | 38.14084 | 32301 ft | 377 kts | 0° |
| 2026-05-01 15:29 | 57.93823 | 38.14015 | 32608 ft | 373 kts | 7° |
| 2026-05-01 15:30 | 57.98131 | 38.14722 | 32850 ft | 374 kts | 8° |
| 2026-05-01 15:31 | 58.09349 | 38.16614 | 33165 ft | 375 kts | 8° |
| 2026-05-01 15:31 | 58.14541 | 38.17482 | 33164 ft | 375 kts | 8° |
| 2026-05-01 15:32 | 58.24067 | 38.19061 | 33151 ft | 376 kts | 7° |
| 2026-05-01 15:34 | 58.39655 | 38.21730 | 33148 ft | 376 kts | 7° |